x

Northwestern Hawaii Two - 190nm Nw Of Kauai Is, Hi (51101) Wave Buoy

7:50am - Thu 27th Nov 2014 All times are HST. -10 hours from GMT.

  • Sig Wave height 8.2ft
  • Swell Direction
  • Peak Period 14s
  • Average Period 7s
  • Wind
    18mph, 25mph gusts
  • Sea Temp 77°f
  • Air Temp 75°f
  • Sea Pressure 1021mb
  • Northwestern Hawaii Two - 190nm Nw Of Kauai Is, Hi
  • Northwestern Hawaii Two - 190nm Nw Of Kauai Is, Hi

More Historic Weather Station data

Upgrade to MSW Pro to gain access to the past 30 days of data for over 8000 Wavebouys and Weather Stations around the globe.

Join Pro

Comparision Forecast

View Surf forecast
   
Thu 11/27 7:50am 8ft 14s 7s 18 25 mph 1021mb 77f 75f
6:50am 8ft 14s 7s 16 20 mph 1020.5mb 77f 73f
5:50am 8ft 14s 7s 18 22 mph 1020.2mb 77f 75f
4:50am 8.5ft 14s 8s 18 22 mph 1020.1mb 77f 74f
3:50am 8.5ft 13s 7s 18 25 mph 1020.4mb 77f 74f
2:50am 8ft 14s 7s 18 22 mph 1020.7mb 77f 74f
1:50am 8.5ft 13s 7s 18 22 mph 1021.3mb 77f 74f
12:50am 8.5ft 14s 7s 18 22 mph 1021.2mb 77f 74f
Wed 11/26 11:50pm 9ft 14s 7s 20 22 mph 1021.4mb 77f 74f
10:50pm 9ft 14s 7s 20 25 mph 1021.5mb 77f 74f
9:50pm 9ft 10s 7s 20 29 mph 1021.6mb 77f 73f
8:50pm 9ft 14s 7s 22 27 mph 1021.5mb 77f 73f
7:50pm 8.5ft 11s 7s 22 27 mph 1021.2mb 77f 73f
6:50pm 8.5ft 14s 7s 20 25 mph 1020.7mb 77f 72f
5:50pm 10ft 14s 9s 20 25 mph 1020.4mb 77f 72f
4:50pm 9.5ft 11s 8s 20 22 mph 1019.7mb 77f 72f
3:50pm 9.5ft 12s 8s 18 22 mph 1019.4mb 77f 72f
2:50pm 10ft 11s 9s 18 22 mph 1019.4mb 77f 72f
1:50pm 9ft 13s 9s 16 22 mph 1019.9mb 77f 72f
12:50pm 10ft 12s 9s 18 22 mph 1020.6mb 77f 72f
11:50am 8.5ft 12s 8s 16 22 mph 1021.4mb 77f 72f
10:50am 8.5ft 12s 9s 16 20 mph 1022.3mb 77f 72f
9:50am 7ft 11s 8s 13 18 mph 1022.8mb 77f 72f
8:50am 8ft 12s 8s 13 18 mph 1022.5mb 77f 72f
7:50am 7ft 12s 7s 13 20 mph 1022mb 77f 72f
6:50am 8ft 11s 8s 16 18 mph 1021.3mb 77f 72f
5:50am 8ft 10s 8s 16 20 mph 1020.6mb 77f 72f
4:50am 7.5ft 9s 7s 11 13 mph 1020.1mb 77f 71f
3:50am 8ft 12s 8s 16 22 mph 1020mb 77f 71f
2:50am 8ft 12s 8s 13 18 mph 1020mb 77f 72f
1:50am 8ft 11s 7s 16 22 mph 1020.3mb 77f 71f
12:50am 8.5ft 9s 8s 16 20 mph 1020.3mb 77f 71f
Tue 11/25 11:50pm 7.5ft 8s 7s 16 20 mph 1020.6mb 77f 71f
10:50pm 8ft 9s 7s 18 25 mph 1020.7mb 77f 71f
9:50pm 8.5ft 11s 8s 16 22 mph 1020.5mb 77f 72f
8:50pm 8ft 11s 7s 16 20 mph 1020.3mb 77f 71f
7:50pm 7.5ft 12s 8s 16 20 mph 1020.1mb 77f 72f
6:50pm 7.5ft 11s 8s 16 20 mph 1019.7mb 77f 72f
5:50pm 8.5ft 12s 8s 13 18 mph 1019.2mb 77f 72f
4:50pm 8.5ft 11s 8s 11 16 mph 1018.8mb 77f 72f
3:50pm 8ft 13s 8s 11 16 mph 1018.3mb 77f 71f
2:50pm 8ft 12s 8s 11 13 mph 1018.2mb 78f 72f
1:50pm 9ft 13s 8s 13 16 mph 1018.3mb 78f 72f
12:50pm 9.5ft 13s 8s 11 13 mph 1018.9mb 78f 72f
11:50am 9ft 13s 8s 13 18 mph 1019.7mb 78f 72f
10:50am 8.5ft 9s 8s 13 16 mph 1020.2mb 78f 72f
9:50am 9.5ft 13s 8s 13 18 mph 1020.2mb 78f 72f
8:50am 10ft 13s 8s 11 16 mph 1019.8mb 78f 71f
7:50am 10ft 11s 8s 13 18 mph 1019mb 78f 71f
6:50am 10ft 9s 8s 13 18 mph 1018.5mb 78f 71f
5:50am 9.5ft 13s 7s 16 20 mph 1017.9mb 78f 71f
4:50am 11ft 10s 8s 13 18 mph 1017.6mb 78f 71f
3:50am 10ft 12s 7s 13 20 mph 1017.2mb 78f 71f
2:50am 11ft 13s 8s 18 22 mph 1017.3mb 78f 71f
1:50am 10.5ft 8s 7s 18 25 mph 1017.5mb 78f 70f
12:50am 11ft 13s 8s 18 22 mph 1017.6mb 78f 71f
Mon 11/24 11:50pm 12ft 10s 8s 20 25 mph 1017.6mb 78f 71f
10:50pm 11ft 11s 7s 20 27 mph 1017.6mb 78f 71f
9:50pm 11ft 11s 8s 20 25 mph 1017.6mb 78f 71f
8:50pm 12.5ft 13s 8s 20 25 mph 1017.1mb 78f 71f
7:50pm 11.5ft 12s 7s 18 25 mph 1016.9mb 78f 71f
6:50pm 12ft 11s 8s 20 25 mph 1016.1mb 78f 71f
4:50pm 12ft 9s 8s 20 25 mph 1015.3mb 78f 71f
3:50pm 11.5ft 11s 7s 22 27 mph 1014.8mb 78f 71f
2:50pm 13ft 10s 8s 22 27 mph 1014.5mb 78f 71f
1:50pm 13ft 13s 8s 22 27 mph 1014.9mb 78f 71f
12:50pm 12.5ft 12s 8s 22 31 mph 1015.8mb 78f 71f
11:50am 13ft 13s 8s 22 27 mph 1016.3mb 78f 71f
10:50am 13.5ft 10s 8s 22 29 mph 1016.6mb 78f 71f
9:50am 13ft 10s 8s 25 31 mph 1016.4mb 78f 71f
8:50am 13ft 10s 8s 25 31 mph 1016mb 78f 71f
7:50am 12.5ft 10s 7s 22 29 mph 1015.2mb 78f 71f
6:50am 13ft 9s 8s 22 31 mph 1014.5mb 78f 71f
5:50am 13.5ft 10s 8s 20 27 mph 1014mb 78f 71f
4:50am 12.5ft 10s 7s 25 29 mph 1013.4mb 78f 71f
3:50am 13ft 9s 7s 25 29 mph 1013.4mb 78f 71f
2:50am 13ft 14s 8s 25 31 mph 1013.4mb 78f 71f
1:50am 12ft 11s 7s 22 27 mph 1013.9mb 78f 72f
12:50am 12.5ft 8s 7s 29 34 mph 1013.7mb 78f 72f
Sun 11/23 11:50pm 12.5ft 13s 7s 27 34 mph 1013.9mb 78f 73f
10:50pm 11ft 14s 7s 27 34 mph 1013.7mb 78f 73f
9:50pm 11ft 14s 7s 25 31 mph 1013.9mb 78f 72f
8:50pm 11ft 13s 7s 29 34 mph 1013.6mb 78f 71f
7:50pm 10.5ft 13s 7s 25 31 mph 1013.1mb 79f 71f